Time;durP1;ratioP1;P1;durP2;ratioP2;P2;SDS_P1;SDS_P2;PMS_P1;PMS_P2;Temp;Humidity;BMP_temperature;BMP_pressure;BME280_temperature;BME280_humidity;BME280_pressure;Samples;Min_cycle;Max_cycle;Signal;HPM_P1;HPM_P2
2024/01/24 00:02:02;;;;;;;8.23;3.33;;;;;;;12.54;100.00;100974.09;5024939;28;20068;-83
2024/01/24 00:04:28;;;;;;;7.65;3.63;;;;;;;12.54;100.00;100995.09;5024672;28;20081;-83
2024/01/24 00:06:55;;;;;;;7.13;3.53;;;;;;;12.55;100.00;100997.56;5028480;28;20046;-84
2024/01/24 00:09:22;;;;;;;5.45;3.17;;;;;;;12.53;100.00;101003.94;5020726;28;20182;-83
2024/01/24 00:11:50;;;;;;;5.13;3.08;;;;;;;12.51;100.00;101000.66;5018864;28;20073;-82
2024/01/24 00:14:16;;;;;;;6.43;3.50;;;;;;;12.51;100.00;101000.66;5016682;28;20077;-82
2024/01/24 00:16:43;;;;;;;4.38;3.05;;;;;;;12.56;100.00;101004.44;5016705;28;20126;-83
2024/01/24 00:19:10;;;;;;;5.30;3.13;;;;;;;12.56;100.00;100986.06;5015903;28;20061;-83
2024/01/24 00:21:44;;;;;;;7.05;3.55;;;;;;;12.54;100.00;100995.09;5016966;28;20057;-82
2024/01/24 00:24:12;;;;;;;7.10;3.15;;;;;;;12.56;100.00;100999.19;5011519;28;20046;-83
2024/01/24 00:26:39;;;;;;;7.00;3.38;;;;;;;12.57;100.00;101000.03;5015732;28;20131;-82
2024/01/24 00:29:07;;;;;;;5.47;2.83;;;;;;;12.56;100.00;101012.31;5019623;28;20116;-82
2024/01/24 00:31:34;;;;;;;8.63;3.35;;;;;;;12.48;100.00;101006.22;5026082;28;20559;-83
2024/01/24 00:34:00;;;;;;;8.38;3.78;;;;;;;12.57;100.00;100985.09;5024961;28;20220;-83
2024/01/24 00:36:27;;;;;;;3.83;2.83;;;;;;;12.54;100.00;100979.34;5024599;28;20077;-83
2024/01/24 00:38:54;;;;;;;8.65;3.55;;;;;;;12.53;100.00;100959.31;5023782;28;20081;-83
2024/01/24 00:41:20;;;;;;;6.40;3.70;;;;;;;12.63;100.00;100952.13;5024687;28;20109;-84
2024/01/24 00:43:47;;;;;;;9.10;3.70;;;;;;;12.63;100.00;100949.50;5024439;28;20084;-84
2024/01/24 00:46:15;;;;;;;10.50;3.85;;;;;;;12.72;100.00;100929.34;5023805;28;20538;-83
2024/01/24 00:48:41;;;;;;;7.63;3.63;;;;;;;12.72;100.00;100924.91;5024274;28;20109;-83
2024/01/24 00:51:08;;;;;;;9.18;3.90;;;;;;;12.66;100.00;100904.53;5030259;28;20049;-83
2024/01/24 00:53:38;;;;;;;6.72;3.70;;;;;;;12.82;100.00;100901.91;5037674;28;20128;-83
2024/01/24 00:56:05;;;;;;;7.13;3.40;;;;;;;12.79;100.00;100923.25;5029391;28;20049;-81
2024/01/24 00:58:32;;;;;;;5.35;3.47;;;;;;;12.82;100.00;100915.03;5024252;28;20149;-83
2024/01/24 01:00:59;;;;;;;8.98;3.70;;;;;;;12.87;100.00;100933.75;5024828;28;20049;-83
2024/01/24 01:03:27;;;;;;;6.10;3.30;;;;;;;12.91;100.00;100937.69;5024486;28;20420;-84
2024/01/24 01:05:53;;;;;;;6.30;3.50;;;;;;;12.91;100.00;100936.88;5023795;28;20061;-83
2024/01/24 01:08:20;;;;;;;6.95;3.58;;;;;;;12.92;100.00;100913.06;5024663;28;20053;-84
2024/01/24 01:10:47;;;;;;;8.93;3.70;;;;;;;12.89;100.00;100915.22;5023350;28;20109;-84
2024/01/24 01:13:13;;;;;;;9.32;4.10;;;;;;;12.93;100.00;100935.72;5023790;28;20215;-83
2024/01/24 01:15:40;;;;;;;7.97;3.75;;;;;;;12.94;100.00;100928.66;5023057;28;20478;-82
2024/01/24 01:18:07;;;;;;;8.32;3.88;;;;;;;12.94;100.00;100933.94;5022034;28;20080;-83
2024/01/24 01:20:37;;;;;;;6.80;3.75;;;;;;;12.95;100.00;100933.75;5022458;28;20053;-83
2024/01/24 01:23:04;;;;;;;7.32;3.63;;;;;;;12.94;100.00;100940.00;5022128;28;20057;-82
2024/01/24 01:25:31;;;;;;;7.65;4.38;;;;;;;12.98;100.00;100955.44;5018587;28;20070;-83
2024/01/24 01:27:58;;;;;;;5.03;3.25;;;;;;;13.00;100.00;100963.97;5021392;28;20109;-83
2024/01/24 01:30:25;;;;;;;6.53;4.05;;;;;;;12.98;100.00;100955.44;5020801;28;20077;-83
2024/01/24 01:32:51;;;;;;;7.65;3.80;;;;;;;12.90;100.00;100938.69;5021049;28;20108;-83
2024/01/24 01:35:18;;;;;;;8.73;3.67;;;;;;;12.95;100.00;100939.00;5021859;28;20056;-83
2024/01/24 01:37:47;;;;;;;7.78;3.63;;;;;;;12.88;100.00;100916.19;5021173;28;20053;-83
2024/01/24 01:40:14;;;;;;;8.18;3.60;;;;;;;12.97;100.00;100938.84;5021501;28;20421;-83
2024/01/24 01:42:45;;;;;;;8.77;3.70;;;;;;;13.04;100.00;100936.41;5021636;28;20054;-83
2024/01/24 01:45:11;;;;;;;10.20;3.70;;;;;;;13.03;100.00;100904.06;5020366;28;20108;-83
2024/01/24 01:47:39;;;;;;;8.57;3.50;;;;;;;13.05;100.00;100909.13;5020403;28;20369;-82
2024/01/24 01:52:52;;;;;;;5.93;3.65;;;;;;;13.06;100.00;100853.81;5007658;23;20081;-84
2024/01/24 01:55:27;;;;;;;5.75;3.20;;;;;;;13.05;100.00;100856.59;4994020;28;20042;-83
2024/01/24 01:57:59;;;;;;;5.38;3.33;;;;;;;13.10;100.00;100862.19;4998953;28;20057;-84
2024/01/24 02:00:35;;;;;;;6.97;3.50;;;;;;;13.17;100.00;100861.38;5000188;28;20464;-83
2024/01/24 02:03:25;;;;;;;6.65;3.33;;;;;;;13.20;99.98;100854.97;4969850;28;20126;-84
2024/01/24 02:06:01;;;;;;;5.90;3.05;;;;;;;13.20;99.29;100854.97;5037353;22;20046;-81
2024/01/24 02:08:41;;;;;;;6.38;3.30;;;;;;;13.12;99.22;100834.75;4999288;28;20532;-82
2024/01/24 02:11:11;;;;;;;6.97;3.53;;;;;;;13.28;99.06;100874.13;5005182;28;20495;-82
2024/01/24 02:13:38;;;;;;;5.93;3.03;;;;;;;13.22;99.01;100876.66;5005084;28;20456;-81
2024/01/24 02:16:05;;;;;;;6.57;3.33;;;;;;;13.20;99.22;100881.25;5009978;28;20042;-81
2024/01/24 02:18:32;;;;;;;4.00;2.92;;;;;;;13.26;98.97;100864.78;5020710;28;20108;-82
2024/01/24 02:20:59;;;;;;;5.38;2.85;;;;;;;13.35;98.67;100863.78;5023151;28;20085;-83
2024/01/24 02:23:27;;;;;;;9.68;3.30;;;;;;;13.44;98.40;100888.25;5017570;28;20058;-84
2024/01/24 02:25:57;;;;;;;10.00;3.47;;;;;;;13.42;98.04;100880.53;5020807;28;20085;-85
2024/01/24 02:28:28;;;;;;;4.95;3.10;;;;;;;13.46;97.94;100883.63;5015756;28;20193;-84
2024/01/24 02:30:55;;;;;;;5.88;3.05;;;;;;;13.40;97.74;100852.75;5021783;28;20202;-83
2024/01/24 02:33:22;;;;;;;10.27;3.03;;;;;;;13.39;97.60;100849.31;5020422;28;20050;-83
2024/01/24 02:35:49;;;;;;;5.97;2.75;;;;;;;13.42;97.40;100838.47;5020958;28;20082;-83
2024/01/24 02:38:15;;;;;;;5.70;2.90;;;;;;;13.50;96.88;100835.81;5019700;28;20054;-82
2024/01/24 02:40:42;;;;;;;5.00;3.42;;;;;;;13.63;96.55;100844.97;5026754;28;20160;-85
2024/01/24 02:43:10;;;;;;;7.47;2.97;;;;;;;13.61;96.57;100848.59;5017542;28;20053;-82
2024/01/24 02:45:37;;;;;;;3.88;2.75;;;;;;;13.42;96.47;100822.69;5022798;28;20053;-83
2024/01/24 02:48:05;;;;;;;4.90;2.75;;;;;;;13.55;96.49;100822.97;5023133;28;20054;-81
2024/01/24 02:50:31;;;;;;;3.45;2.55;;;;;;;13.64;96.53;100836.09;5024614;28;20072;-81
2024/01/24 02:52:58;;;;;;;3.72;2.20;;;;;;;13.74;96.24;100810.38;5021397;28;20053;-83
2024/01/24 02:55:25;;;;;;;5.63;2.55;;;;;;;13.72;96.02;100812.38;5020578;28;20069;-85
2024/01/24 02:57:52;;;;;;;7.82;2.70;;;;;;;13.64;96.20;100800.09;5009985;28;20074;-82
2024/01/24 03:00:20;;;;;;;6.38;2.53;;;;;;;13.69;96.25;100815.38;5021382;28;20046;-84
2024/01/24 03:02:47;;;;;;;4.35;2.53;;;;;;;13.69;95.99;100810.94;5019420;28;20429;-83
2024/01/24 03:05:14;;;;;;;6.55;2.35;;;;;;;13.73;96.09;100819.28;5026071;28;20089;-84
2024/01/24 03:07:41;;;;;;;2.85;1.90;;;;;;;13.70;96.26;100798.59;5025009;28;20081;-84
2024/01/24 03:10:09;;;;;;;4.20;2.47;;;;;;;13.68;96.42;100801.41;5025576;28;20048;-84
2024/01/24 03:12:35;;;;;;;5.43;2.38;;;;;;;13.56;96.87;100790.44;5021757;28;20048;-84
2024/01/24 03:15:07;;;;;;;2.88;1.98;;;;;;;13.58;97.15;100774.50;5025177;28;20078;-82
2024/01/24 03:17:35;;;;;;;6.70;2.70;;;;;;;13.66;97.33;100782.34;5023036;28;20375;-85
2024/01/24 03:20:10;;;;;;;3.35;2.20;;;;;;;13.55;97.48;100774.84;5021832;28;20042;-84
2024/01/24 03:22:48;;;;;;;4.30;1.80;;;;;;;13.44;98.16;100799.69;5023970;28;20056;-83
2024/01/24 03:25:18;;;;;;;7.00;2.30;;;;;;;13.56;98.35;100781.75;5020100;28;20127;-82
2024/01/24 03:27:45;;;;;;;3.75;2.08;;;;;;;13.59;98.47;100810.31;5025877;28;20050;-85
2024/01/24 03:30:13;;;;;;;3.95;1.65;;;;;;;13.57;98.85;100801.78;5026809;28;20057;-83
2024/01/24 03:32:42;;;;;;;4.88;2.08;;;;;;;13.56;99.29;100781.75;5024637;28;20416;-84
2024/01/24 03:35:10;;;;;;;2.58;2.03;;;;;;;13.52;99.35;100769.91;5025182;28;20064;-83
2024/01/24 03:37:36;;;;;;;3.67;1.85;;;;;;;13.55;99.69;100764.31;5018501;28;20093;-84
2024/01/24 03:40:04;;;;;;;2.58;1.83;;;;;;;13.48;100.00;100766.81;5027430;28;20058;-82
2024/01/24 03:42:36;;;;;;;2.65;1.73;;;;;;;13.43;100.00;100748.09;5029562;28;20061;-82
2024/01/24 03:45:03;;;;;;;1.75;1.48;;;;;;;13.32;100.00;100772.13;5029228;28;20050;-82
2024/01/24 03:47:30;;;;;;;2.55;1.85;;;;;;;13.40;100.00;100760.78;5024050;28;20049;-83
2024/01/24 03:49:58;;;;;;;2.95;1.92;;;;;;;13.49;100.00;100771.09;5012570;28;20073;-82
2024/01/24 03:52:25;;;;;;;3.30;1.85;;;;;;;13.37;100.00;100742.72;5013681;28;20053;-83
2024/01/24 03:54:51;;;;;;;2.60;1.80;;;;;;;13.41;100.00;100767.66;5016847;28;20054;-84
2024/01/24 03:57:18;;;;;;;1.58;1.23;;;;;;;13.40;100.00;100779.16;5017889;28;20080;-82
2024/01/24 03:59:44;;;;;;;1.90;1.50;;;;;;;13.44;100.00;100776.03;5017381;28;20081;-82
2024/01/24 04:02:11;;;;;;;2.03;1.40;;;;;;;13.59;100.00;100776.13;5006887;28;20042;-82
2024/01/24 04:04:38;;;;;;;3.00;1.67;;;;;;;13.56;100.00;100764.16;5016940;28;20117;-83
2024/01/24 04:07:08;;;;;;;4.80;1.63;;;;;;;13.52;100.00;100790.97;5018378;28;20492;-82
2024/01/24 04:09:35;;;;;;;2.50;1.55;;;;;;;13.47;100.00;100770.44;5016381;28;20041;-81
2024/01/24 04:12:01;;;;;;;1.63;1.20;;;;;;;13.52;100.00;100789.16;5016886;28;20066;-80
2024/01/24 04:14:28;;;;;;;3.15;1.17;;;;;;;13.56;100.00;100800.16;5019801;28;20058;-81
2024/01/24 04:16:54;;;;;;;1.58;1.02;;;;;;;13.55;100.00;100828.25;5016217;28;20140;-82
2024/01/24 04:19:21;;;;;;;1.13;0.88;;;;;;;13.55;100.00;100822.97;5016798;28;20085;-84
2024/01/24 04:21:48;;;;;;;2.25;1.35;;;;;;;13.63;100.00;100832.66;5017018;28;20100;-82
2024/01/24 04:24:16;;;;;;;0.93;0.75;;;;;;;13.64;100.00;100851.88;5020689;28;20132;-82
2024/01/24 04:26:42;;;;;;;0.70;0.70;;;;;;;13.77;100.00;100852.13;5017030;28;20125;-83
2024/01/24 04:29:09;;;;;;;1.05;0.88;;;;;;;13.75;100.00;100838.31;5010623;28;20060;-81
2024/01/24 04:31:35;;;;;;;0.57;0.57;;;;;;;13.68;100.00;100816.38;5016971;28;20528;-82
2024/01/24 04:34:02;;;;;;;0.60;0.60;;;;;;;13.70;100.00;100835.41;5018305;28;20089;-83
2024/01/24 04:36:30;;;;;;;2.15;0.65;;;;;;;13.72;100.00;100870.22;5015685;28;20109;-81
2024/01/24 04:38:56;;;;;;;0.85;0.73;;;;;;;13.76;99.92;100850.50;5015794;28;20056;-82
2024/01/24 04:41:24;;;;;;;0.68;0.68;;;;;;;13.83;98.51;100827.78;5008087;28;20461;-79
2024/01/24 04:43:51;;;;;;;1.95;0.80;;;;;;;13.80;97.32;100836.00;5017859;28;20073;-81
2024/01/24 04:46:19;;;;;;;1.17;0.70;;;;;;;13.84;97.83;100832.03;5016617;28;20700;-80
2024/01/24 04:48:46;;;;;;;0.70;0.65;;;;;;;13.77;99.07;100846.88;5017126;28;20054;-83
2024/01/24 04:51:12;;;;;;;0.68;0.68;;;;;;;13.60;100.00;100870.63;5008549;28;20056;-82
2024/01/24 04:53:39;;;;;;;2.38;1.60;;;;;;;13.48;100.00;100884.28;5010010;28;20074;-80
2024/01/24 04:56:06;;;;;;;0.80;0.80;;;;;;;13.42;100.00;100906.81;5016199;28;20235;-80
2024/01/24 04:58:34;;;;;;;0.68;0.60;;;;;;;13.44;100.00;100899.59;5015230;28;20081;-82
2024/01/24 05:01:01;;;;;;;0.93;0.80;;;;;;;13.39;100.00;100891.38;5015427;28;20077;-81
2024/01/24 05:03:28;;;;;;;1.45;0.82;;;;;;;13.33;100.00;100913.06;5017336;28;20471;-80
2024/01/24 05:05:55;;;;;;;1.27;1.00;;;;;;;13.29;100.00;100880.22;5015191;28;20145;-82
2024/01/24 05:08:21;;;;;;;0.90;0.90;;;;;;;13.27;100.00;100877.75;5006115;28;20073;-82
2024/01/24 05:10:48;;;;;;;1.60;0.80;;;;;;;13.33;100.00;100881.53;5006902;28;20073;-82
2024/01/24 05:13:15;;;;;;;1.08;1.02;;;;;;;13.26;100.00;100878.75;5019851;28;20085;-81
2024/01/24 05:15:43;;;;;;;2.40;1.30;;;;;;;13.31;99.71;100875.63;5021750;28;20089;-83
2024/01/24 05:18:09;;;;;;;1.83;1.67;;;;;;;13.26;99.46;100901.56;5021129;28;20077;-82
2024/01/24 05:20:39;;;;;;;3.33;1.88;;;;;;;13.29;100.00;100903.88;5021414;28;20069;-81
2024/01/24 05:23:07;;;;;;;1.55;1.42;;;;;;;13.13;100.00;100880.25;5021440;28;20045;-83
2024/01/24 05:25:33;;;;;;;2.35;1.85;;;;;;;13.21;100.00;100888.16;5019474;28;20069;-81
2024/01/24 05:28:00;;;;;;;2.40;2.20;;;;;;;13.06;100.00;100889.75;5021199;28;20133;-82
2024/01/24 05:30:27;;;;;;;3.05;2.70;;;;;;;13.19;100.00;100926.91;5013957;28;20092;-82
2024/01/24 05:32:57;;;;;;;3.28;1.58;;;;;;;13.20;100.00;100924.13;5020986;28;20544;-82
2024/01/24 05:35:23;;;;;;;1.30;1.15;;;;;;;13.06;100.00;100934.44;5020994;28;20041;-81
2024/01/24 05:37:50;;;;;;;2.05;1.35;;;;;;;12.99;100.00;100936.06;5018735;28;20132;-82
2024/01/24 05:40:17;;;;;;;4.00;1.40;;;;;;;12.95;100.00;100925.88;5020095;28;20078;-83
2024/01/24 05:42:44;;;;;;;3.47;1.50;;;;;;;13.00;99.84;100937.72;5019485;28;20053;-82
2024/01/24 05:45:11;;;;;;;4.03;1.92;;;;;;;12.94;97.20;100940.00;5018072;28;20427;-83
2024/01/24 05:47:38;;;;;;;5.28;2.00;;;;;;;12.92;94.77;100930.63;5015970;28;20552;-82
2024/01/24 05:50:11;;;;;;;7.93;2.60;;;;;;;12.98;91.04;100902.91;5018147;28;20108;-81
2024/01/24 05:52:38;;;;;;;10.25;2.80;;;;;;;12.91;89.25;100885.16;5019252;28;20053;-81
2024/01/24 05:55:06;;;;;;;9.85;2.78;;;;;;;12.93;87.94;100870.06;5019737;28;20046;-82
2024/01/24 05:57:32;;;;;;;14.02;3.03;;;;;;;12.84;87.32;100881.56;5011348;28;20134;-81
2024/01/24 05:59:59;;;;;;;10.07;2.60;;;;;;;12.77;87.57;100896.31;5012362;28;20129;-81
2024/01/24 06:02:28;;;;;;;9.02;2.85;;;;;;;12.86;87.49;100892.72;5017177;28;20053;-81
2024/01/24 06:04:54;;;;;;;7.60;2.83;;;;;;;12.83;87.02;100885.16;5018575;28;20088;-83
2024/01/24 06:07:22;;;;;;;12.43;3.53;;;;;;;12.74;87.63;100911.63;5016495;28;20081;-82
2024/01/24 06:09:49;;;;;;;8.43;2.67;;;;;;;12.67;87.84;100900.94;5008915;28;20241;-80
2024/01/24 06:12:16;;;;;;;7.57;2.50;;;;;;;12.75;87.74;100927.19;5017392;28;20042;-82
2024/01/24 06:14:43;;;;;;;10.88;3.33;;;;;;;12.74;87.16;100933.44;5017121;28;20136;-80
2024/01/24 06:17:09;;;;;;;12.40;3.30;;;;;;;12.73;86.29;100931.78;5011521;28;20104;-81
2024/01/24 06:19:36;;;;;;;13.93;3.65;;;;;;;12.75;85.16;100950.84;5016848;28;20118;-80
2024/01/24 06:22:02;;;;;;;15.73;3.70;;;;;;;12.77;84.85;100954.09;5016793;28;20084;-81
2024/01/24 06:24:30;;;;;;;11.50;3.58;;;;;;;12.79;84.41;100960.00;5016109;28;20465;-81
2024/01/24 06:26:57;;;;;;;11.50;3.42;;;;;;;12.76;84.59;100985.78;5016825;28;20171;-81
2024/01/24 06:29:24;;;;;;;18.58;4.30;;;;;;;12.78;83.64;100978.53;5012372;28;20054;-81
2024/01/24 06:31:50;;;;;;;16.38;4.00;;;;;;;12.74;83.45;100964.94;5006272;28;20133;-81
2024/01/24 06:34:17;;;;;;;14.25;3.85;;;;;;;12.70;84.05;100947.88;5014475;28;20077;-82
2024/01/24 06:36:44;;;;;;;14.82;3.65;;;;;;;12.78;83.87;100961.00;5014296;28;20469;-81
2024/01/24 06:39:10;;;;;;;11.65;3.65;;;;;;;12.63;84.41;100978.38;5009817;28;20110;-79
2024/01/24 06:41:38;;;;;;;17.23;3.75;;;;;;;12.76;83.68;100981.34;5016775;28;20136;-80
2024/01/24 06:44:05;;;;;;;17.50;4.50;;;;;;;12.60;84.13;100968.19;5003163;28;20122;-80
2024/01/24 06:46:42;;;;;;;15.40;4.57;;;;;;;12.60;84.55;100983.94;5005876;28;20066;-81
2024/01/24 06:49:10;;;;;;;10.82;4.10;;;;;;;12.52;85.01;100991.78;5015116;28;20053;-80
2024/01/24 06:51:37;;;;;;;21.27;4.57;;;;;;;12.52;84.39;100987.38;5015370;28;20069;-81
2024/01/24 06:54:04;;;;;;;20.52;5.13;;;;;;;12.52;84.10;100983.91;5008370;28;20104;-83
2024/01/24 06:56:38;;;;;;;21.35;5.50;;;;;;;12.51;83.72;100987.53;5013802;28;20059;-81
2024/01/24 06:59:13;;;;;;;20.85;5.40;;;;;;;12.39;83.72;100981.75;5009271;28;20077;-82
2024/01/24 07:01:46;;;;;;;19.13;5.32;;;;;;;12.26;84.32;101005.00;5009009;28;20046;-82
2024/01/24 07:04:19;;;;;;;25.33;5.47;;;;;;;12.22;84.87;101007.13;5011888;28;20487;-82
2024/01/24 07:07:05;;;;;;;21.17;5.13;;;;;;;12.19;85.10;100994.31;5011578;28;20313;-81
2024/01/24 07:16:26;;;;;;;20.50;5.38;;;;;;;12.02;85.83;101066.03;5008970;28;19948;-86
2024/01/24 07:22:59;;;;;;;20.42;5.68;;;;;;;12.22;84.95;101079.75;4944963;29;20055;-81
2024/01/24 07:25:38;;;;;;;24.67;5.75;;;;;;;12.12;85.41;101102.66;4899290;29;20504;-81
2024/01/24 07:28:30;;;;;;;21.88;6.20;;;;;;;12.17;85.67;101092.53;5008893;28;20046;-81
2024/01/24 07:31:25;;;;;;;24.05;5.15;;;;;;;12.03;85.73;101090.44;5012699;28;20112;-82
2024/01/24 07:34:24;;;;;;;21.58;5.57;;;;;;;12.14;86.12;101104.16;5000338;28;20054;-81
2024/01/24 07:36:53;;;;;;;23.33;6.35;;;;;;;12.09;86.40;101116.06;5002127;28;20046;-81
2024/01/24 07:39:20;;;;;;;23.10;5.50;;;;;;;12.00;86.61;101114.38;5013204;28;20506;-82
2024/01/24 07:41:48;;;;;;;22.30;6.53;;;;;;;12.15;86.24;101129.41;5015894;28;20132;-82
2024/01/24 07:44:14;;;;;;;23.08;5.95;;;;;;;12.12;86.00;101127.09;5012047;28;20145;-81
2024/01/24 07:46:44;;;;;;;32.13;7.03;;;;;;;12.17;86.24;101109.09;5007861;28;20054;-79
2024/01/24 07:49:10;;;;;;;25.38;5.88;;;;;;;12.06;86.28;101122.44;5018029;28;20137;-82
2024/01/24 07:51:37;;;;;;;26.92;6.35;;;;;;;12.06;86.46;101127.69;5010809;28;20042;-82
2024/01/24 07:54:04;;;;;;;22.30;5.20;;;;;;;12.06;86.20;101117.19;5017288;28;20085;-82
2024/01/24 07:56:31;;;;;;;23.48;6.13;;;;;;;12.11;85.64;101114.94;5022556;28;20085;-83
2024/01/24 07:58:59;;;;;;;28.63;6.18;;;;;;;12.12;85.34;101116.59;5023360;28;20054;-81
2024/01/24 08:01:26;;;;;;;28.65;5.80;;;;;;;12.10;85.30;101149.19;5022229;28;20054;-82
2024/01/24 08:03:52;;;;;;;25.40;5.90;;;;;;;12.11;84.81;101141.19;5017168;28;20050;-80
2024/01/24 08:06:28;;;;;;;31.90;8.50;;;;;;;12.18;84.49;101136.97;5053623;23;20157;-83
2024/01/24 08:09:21;;;;;;;26.02;7.28;;;;;;;12.16;84.41;101123.19;5009656;28;20065;-83
2024/01/24 08:11:51;;;;;;;30.13;6.40;;;;;;;12.12;84.09;101106.09;5011510;28;20119;-84
2024/01/24 08:14:39;;;;;;;27.63;7.18;;;;;;;12.15;84.08;101128.56;4995261;28;20056;-84
2024/01/24 08:17:20;;;;;;;23.92;6.03;;;;;;;12.08;84.07;101138.03;5009773;28;20124;-84
2024/01/24 08:19:49;;;;;;;26.92;6.13;;;;;;;12.06;84.18;101151.31;5005750;28;20133;-82
2024/01/24 08:22:16;;;;;;;23.05;6.10;;;;;;;11.96;84.90;101159.25;5010123;28;20084;-83
2024/01/24 08:24:45;;;;;;;32.17;6.35;;;;;;;12.01;84.76;101171.91;5007899;28;20050;-82
2024/01/24 08:27:13;;;;;;;24.88;6.00;;;;;;;12.03;83.59;101169.13;5004522;28;20302;-81
2024/01/24 08:29:45;;;;;;;29.77;7.20;;;;;;;11.99;83.07;101159.94;5007084;28;20445;-83
2024/01/24 08:32:12;;;;;;;29.27;6.60;;;;;;;12.03;83.14;101162.09;4990865;28;20054;-83
2024/01/24 08:34:40;;;;;;;24.63;6.55;;;;;;;11.92;83.15;101168.41;5012881;28;20054;-82
2024/01/24 08:37:08;;;;;;;34.60;7.05;;;;;;;11.88;84.10;101208.19;5008498;28;20049;-82
2024/01/24 08:39:36;;;;;;;28.42;6.80;;;;;;;11.74;85.35;101232.28;5012466;28;20485;-83
2024/01/24 08:42:11;;;;;;;26.67;8.00;;;;;;;11.76;85.69;101241.66;5000591;28;20065;-83
2024/01/24 08:44:41;;;;;;;27.55;6.90;;;;;;;11.72;85.36;101229.00;5016724;28;20500;-83
2024/01/24 08:47:09;;;;;;;33.42;7.50;;;;;;;11.84;85.10;101244.38;5010888;28;20050;-86
2024/01/24 08:49:41;;;;;;;33.15;7.45;;;;;;;11.61;86.56;101256.25;5012152;28;20062;-84
2024/01/24 08:52:10;;;;;;;33.35;7.38;;;;;;;11.52;87.02;101257.94;5020773;28;20050;-84
2024/01/24 08:55:06;;;;;;;36.42;7.45;;;;;;;11.64;87.10;101275.13;5020320;28;20042;-85
2024/01/24 09:10:27;;;;;;;26.80;6.60;;;;;;;11.79;84.01;101277.28;5010363;28;20065;-86
2024/01/24 09:20:05;;;;;;;32.25;8.20;;;;;;;11.77;84.92;101269.56;4957270;28;20055;-86
2024/01/24 09:30:39;;;;;;;34.20;7.47;;;;;;;11.91;84.20;101282.16;4858044;29;20057;-88
2024/01/24 09:37:19;;;;;;;42.75;9.52;;;;;;;11.77;84.94;101313.31;4887249;29;20076;-85
2024/01/24 09:39:47;;;;;;;37.17;7.75;;;;;;;11.70;84.32;101288.63;4899625;28;20056;-86
2024/01/24 09:42:53;;;;;;;37.78;8.55;;;;;;;11.78;84.16;101294.81;5010399;28;20106;-85
2024/01/24 09:46:07;;;;;;;37.50;8.48;;;;;;;11.69;84.18;101290.41;4973427;28;20122;-85
2024/01/24 09:55:39;;;;;;;39.60;7.80;;;;;;;11.93;82.59;101334.44;4950095;29;20533;-86
2024/01/24 09:58:18;;;;;;;33.83;8.07;;;;;;;11.91;81.75;101325.91;5012230;28;20057;-84
2024/01/24 10:01:30;;;;;;;39.75;8.90;;;;;;;11.97;81.31;101351.53;5004094;28;20046;-85
2024/01/24 10:04:46;;;;;;;34.15;8.05;;;;;;;12.05;80.90;101362.13;4940663;29;20587;-85
2024/01/24 10:27:42;;;;;;;33.92;7.82;;;;;;;12.21;79.11;101346.56;1404270;26;20049;-86
2024/01/24 10:43:12;;;;;;;44.22;8.63;;;;;;;12.11;78.93;101372.03;4988988;28;20054;-84
2024/01/24 10:48:58;;;;;;;34.35;7.90;;;;;;;12.02;79.51;101395.69;4997535;28;20054;-83
2024/01/24 10:51:51;;;;;;;33.33;8.48;;;;;;;11.90;79.31;101382.78;4983240;28;20136;-83
2024/01/24 10:57:23;;;;;;;;;;;;;;;12.15;78.58;101393.56;4941800;28;20063;-82
2024/01/24 11:00:28;;;;;;;34.40;8.45;;;;;;;12.18;78.09;101388.84;5005263;28;19922;-83
2024/01/24 11:06:03;;;;;;;30.25;7.38;;;;;;;12.29;76.68;101380.72;5000721;28;20050;-84
2024/01/24 11:08:51;;;;;;;37.15;8.65;;;;;;;12.27;76.85;101387.94;4994787;28;20054;-85
2024/01/24 11:11:33;;;;;;;36.75;7.43;;;;;;;12.20;77.10;101417.56;4993766;28;20050;-85
2024/01/24 11:14:29;;;;;;;35.05;7.57;;;;;;;12.19;77.21;101419.34;5003716;28;20129;-84
2024/01/24 11:30:03;;;;;;;30.88;7.80;;;;;;;12.11;76.75;101424.50;5035830;28;20050;-84
2024/01/24 11:36:13;;;;;;;;;;;;;;;;;;;;;
2024/01/24 11:39:24;;;;;;;;;;;;;;;;;;;;;
2024/01/24 16:51:29;;;;;;;26.65;7.20;;;;;;;10.57;81.01;101833.09;6285689;22;20053;-86
2024/01/24 17:00:49;;;;;;;34.70;7.57;;;;;;;10.51;80.73;101838.84;6256344;22;20069;-85
2024/01/24 17:03:32;;;;;;;40.63;8.05;;;;;;;10.49;80.66;101836.34;6290929;22;20031;-83
2024/01/24 17:06:07;;;;;;;27.92;7.75;;;;;;;10.58;80.74;101851.31;6295583;22;20074;-82
2024/01/24 17:08:41;;;;;;;31.27;7.85;;;;;;;10.48;80.76;101839.94;6294919;22;20054;-84
2024/01/24 17:11:46;;;;;;;35.08;8.50;;;;;;;10.52;80.81;101862.28;6294888;22;20079;-85
2024/01/24 17:14:15;;;;;;;34.47;6.97;;;;;;;10.48;80.09;101842.53;6296821;22;20019;-83
2024/01/24 17:16:53;;;;;;;29.73;7.15;;;;;;;10.48;80.12;101823.41;6296049;22;20049;-82
2024/01/24 17:19:25;;;;;;;27.13;6.38;;;;;;;10.49;79.83;101841.59;6297512;22;20026;-84
2024/01/24 17:22:10;;;;;;;34.13;8.32;;;;;;;10.61;79.68;101853.66;6296614;22;20024;-82
2024/01/24 17:24:56;;;;;;;35.58;7.53;;;;;;;10.54;79.75;101846.44;6295459;22;20400;-83
2024/01/24 17:28:08;;;;;;;32.83;7.57;;;;;;;10.57;80.05;101864.50;6294012;22;20016;-84
2024/01/24 17:30:41;;;;;;;33.47;7.35;;;;;;;10.62;79.96;101859.75;6198798;23;20107;-82
2024/01/24 17:33:27;;;;;;;34.30;7.40;;;;;;;10.50;80.49;101858.13;6277130;22;20023;-84
2024/01/24 17:36:05;;;;;;;31.98;6.93;;;;;;;10.42;80.79;101860.53;6292763;22;20024;-84
2024/01/24 17:38:51;;;;;;;28.33;7.80;;;;;;;10.43;81.19;101872.66;6289527;22;20019;-85
2024/01/24 17:41:25;;;;;;;38.38;6.95;;;;;;;10.39;81.36;101871.28;6289387;22;20023;-84
2024/01/24 17:44:15;;;;;;;29.88;6.78;;;;;;;10.44;81.46;101874.31;6289585;22;20058;-84
2024/01/24 17:46:51;;;;;;;29.33;7.38;;;;;;;10.38;81.75;101885.31;6290614;22;20015;-85
2024/01/24 17:49:29;;;;;;;30.20;7.80;;;;;;;10.36;82.63;101893.28;6287163;22;20057;-85
2024/01/24 17:55:20;;;;;;;27.27;7.68;;;;;;;10.41;83.84;101911.19;6226359;22;20019;-84
2024/01/24 17:57:55;;;;;;;37.05;8.57;;;;;;;10.37;84.37;101923.72;6291541;22;20115;-83
2024/01/24 18:01:18;;;;;;;;;;;;;;;;;;;;;
2024/01/24 18:04:02;;;;;;;40.83;8.48;;;;;;;10.34;85.35;101920.53;6289413;22;20022;-84
2024/01/24 18:06:41;;;;;;;40.05;8.77;;;;;;;10.33;85.55;101924.09;6289201;22;20432;-84
2024/01/24 18:09:34;;;;;;;42.00;7.97;;;;;;;10.39;85.85;101934.06;6290473;22;20456;-83
2024/01/24 18:12:10;;;;;;;39.58;8.55;;;;;;;10.34;86.08;101949.31;6291682;22;20038;-85
2024/01/24 18:14:53;;;;;;;39.28;9.13;;;;;;;10.28;86.85;101945.38;6291806;22;20460;-84
2024/01/24 18:17:55;;;;;;;37.95;8.85;;;;;;;10.37;86.86;101941.22;6288378;22;20046;-84
2024/01/24 18:20:56;;;;;;;35.63;8.63;;;;;;;10.32;86.87;101953.81;6289321;22;20031;-84
2024/01/24 18:23:43;;;;;;;43.85;9.25;;;;;;;10.25;87.67;101953.47;6289906;22;20072;-84
2024/01/24 18:26:10;;;;;;;41.40;10.32;;;;;;;10.22;87.70;101943.25;6287850;22;20050;-79
2024/01/24 18:29:06;;;;;;;41.42;8.07;;;;;;;10.27;87.97;101946.34;6287066;22;20046;-85
2024/01/24 18:51:46;;;;;;;43.20;8.60;;;;;;;10.18;89.09;101931.34;6157043;23;20027;-83
2024/01/24 19:06:52;;;;;;;44.05;9.10;;;;;;;9.96;89.61;101900.81;6256943;22;20130;-85
2024/01/24 19:10:00;;;;;;;38.53;8.90;;;;;;;9.97;89.83;101907.69;6260829;22;20410;-83
2024/01/24 19:20:10;;;;;;;40.15;8.82;;;;;;;9.87;90.39;101917.25;6251051;22;20051;-83
2024/01/24 19:23:11;;;;;;;38.70;8.77;;;;;;;9.75;90.17;101903.34;6256413;22;20613;-84
2024/01/24 19:25:57;;;;;;;46.83;8.43;;;;;;;9.68;90.63;101912.59;6254505;22;20546;-81
2024/01/24 19:32:19;;;;;;;38.33;8.35;;;;;;;9.61;91.23;101922.69;6254680;22;20017;-84
2024/01/24 19:59:23;;;;;;;;;;;;;;;;;;;;;
2024/01/24 20:05:45;;;;;;;46.28;10.68;;;;;;;9.30;93.48;101924.22;6148955;23;20017;-81
2024/01/24 20:24:44;;;;;;;43.05;8.70;;;;;;;8.99;94.48;101936.13;6039792;23;20066;-83
2024/01/24 20:30:26;;;;;;;46.67;10.90;;;;;;;9.14;94.58;101935.94;6151516;23;20085;-82
2024/01/24 20:33:28;;;;;;;35.53;8.93;;;;;;;9.07;94.83;101953.00;6255676;23;20091;-84
2024/01/24 20:36:27;;;;;;;;;;;;;;;;;;;;;